createdAt,value
2018-07-03T00:00:39.725Z,23.15
2018-07-03T00:03:08.123Z,23.07
2018-07-03T00:05:36.767Z,22.97
2018-07-03T00:08:05.238Z,22.91
2018-07-03T00:10:33.669Z,22.92
2018-07-03T00:13:02.079Z,22.89
2018-07-03T00:15:30.517Z,22.85
2018-07-03T00:17:59.451Z,22.80
2018-07-03T00:20:27.856Z,22.77
2018-07-03T00:22:56.262Z,22.75
2018-07-03T00:25:24.774Z,22.71
2018-07-03T00:27:53.337Z,22.68
2018-07-03T00:30:21.696Z,22.66
2018-07-03T00:32:50.145Z,22.62
2018-07-03T00:35:18.475Z,22.61
2018-07-03T00:37:46.922Z,22.60
2018-07-03T00:40:15.324Z,22.54
2018-07-03T00:42:43.703Z,22.52
2018-07-03T00:45:12.036Z,22.48
2018-07-03T00:47:40.443Z,22.48
2018-07-03T00:50:08.819Z,22.51
2018-07-03T00:52:37.270Z,22.53
2018-07-03T00:55:05.769Z,22.50
2018-07-03T00:57:34.107Z,22.48
2018-07-03T01:00:13.763Z,22.43
2018-07-03T01:02:42.143Z,22.41
2018-07-03T01:05:10.493Z,22.41
2018-07-03T01:07:38.814Z,22.40
2018-07-03T01:10:07.403Z,22.40
2018-07-03T01:12:35.790Z,22.37
2018-07-03T01:15:04.198Z,22.28
2018-07-03T01:17:32.547Z,22.25
2018-07-03T01:20:00.892Z,22.20
2018-07-03T01:22:29.249Z,22.17
2018-07-03T01:24:57.554Z,22.15
2018-07-03T01:27:25.883Z,22.14
2018-07-03T01:29:54.259Z,22.12
2018-07-03T01:32:22.646Z,22.05
2018-07-03T01:34:50.995Z,21.95
2018-07-03T01:37:19.347Z,21.86
2018-07-03T01:39:47.682Z,21.84
2018-07-03T01:42:16.068Z,21.68
2018-07-03T01:44:44.502Z,21.80
2018-07-03T01:47:12.848Z,21.74
2018-07-03T01:49:41.199Z,21.75
2018-07-03T01:52:09.544Z,21.71
2018-07-03T01:54:37.897Z,21.66
2018-07-03T01:57:06.320Z,21.60
2018-07-03T01:59:34.730Z,21.52
2018-07-03T02:02:03.090Z,21.49
2018-07-03T02:04:31.415Z,21.46
2018-07-03T02:06:59.721Z,21.44
2018-07-03T02:09:28.075Z,21.41
2018-07-03T02:11:56.420Z,21.40
2018-07-03T02:14:24.792Z,21.40
2018-07-03T02:16:53.159Z,21.38
2018-07-03T02:19:21.459Z,21.38
2018-07-03T02:21:49.799Z,21.37
2018-07-03T02:24:18.135Z,21.36
2018-07-03T02:26:46.554Z,21.38
2018-07-03T02:29:14.907Z,21.35
2018-07-03T02:31:43.256Z,21.32
2018-07-03T02:34:11.547Z,21.31
2018-07-03T02:36:39.902Z,21.29
2018-07-03T02:39:09.767Z,21.27
2018-07-03T02:41:38.361Z,21.21
2018-07-03T02:44:06.699Z,21.12
2018-07-03T02:46:35.198Z,21.08
2018-07-03T02:49:03.621Z,21.01
2018-07-03T02:51:31.935Z,20.95
2018-07-03T02:54:00.267Z,20.89
2018-07-03T02:56:28.648Z,20.90
2018-07-03T02:58:57.048Z,20.94
2018-07-03T03:01:25.471Z,20.95
2018-07-03T03:03:53.795Z,20.97
2018-07-03T03:06:22.107Z,21.00
2018-07-03T03:08:50.459Z,21.01
2018-07-03T03:11:22.923Z,21.02
2018-07-03T03:13:53.132Z,20.99
2018-07-03T03:16:21.518Z,20.99
2018-07-03T03:18:49.880Z,21.01
2018-07-03T03:21:18.312Z,20.99
2018-07-03T03:23:46.683Z,21.00
2018-07-03T03:26:15.205Z,21.00
2018-07-03T03:28:43.748Z,20.99
2018-07-03T03:31:12.090Z,20.97
2018-07-03T03:33:40.404Z,20.95
2018-07-03T03:36:08.783Z,20.92
2018-07-03T03:38:37.131Z,20.91
2018-07-03T03:41:05.477Z,20.90
2018-07-03T03:43:33.822Z,20.87
2018-07-03T03:46:02.259Z,20.87
2018-07-03T03:48:30.780Z,20.86
2018-07-03T03:50:59.114Z,20.87
2018-07-03T03:53:27.484Z,20.89
2018-07-03T03:55:55.842Z,20.90
2018-07-03T03:58:24.186Z,20.88
2018-07-03T04:00:52.564Z,20.90
2018-07-03T04:03:20.996Z,20.85
2018-07-03T04:05:49.347Z,20.82
2018-07-03T04:08:17.821Z,20.73
2018-07-03T04:10:46.207Z,20.66
2018-07-03T04:13:14.608Z,20.59
2018-07-03T04:15:43.125Z,20.57
2018-07-03T04:18:11.459Z,20.59
2018-07-03T04:20:39.865Z,20.57
2018-07-03T04:23:08.220Z,20.58
2018-07-03T04:25:36.583Z,20.50
2018-07-03T04:28:04.937Z,20.45
2018-07-03T04:30:33.296Z,20.45
2018-07-03T04:33:01.628Z,20.46
2018-07-03T04:35:30.010Z,20.41
2018-07-03T04:37:58.387Z,20.38
2018-07-03T04:40:26.720Z,20.36
2018-07-03T04:42:55.075Z,20.33
2018-07-03T04:45:23.399Z,20.30
2018-07-03T04:47:51.831Z,20.31
2018-07-03T04:50:20.316Z,20.30
2018-07-03T04:52:48.879Z,20.31
2018-07-03T04:55:17.398Z,20.33
2018-07-03T04:57:45.702Z,20.34
2018-07-03T05:00:15.283Z,20.33
2018-07-03T05:02:43.593Z,20.36
2018-07-03T05:05:11.997Z,20.37
2018-07-03T05:07:40.518Z,20.35
2018-07-03T05:10:09.019Z,20.35
2018-07-03T05:12:37.332Z,20.36
2018-07-03T05:15:05.869Z,20.31
2018-07-03T05:17:34.298Z,20.31
2018-07-03T05:20:02.636Z,20.29
2018-07-03T05:22:31.195Z,20.32
2018-07-03T05:24:59.714Z,20.39
2018-07-03T05:27:28.135Z,20.42
2018-07-03T05:29:56.467Z,20.43
2018-07-03T05:32:24.830Z,20.48
2018-07-03T05:34:53.251Z,20.55
2018-07-03T05:37:21.649Z,20.59
2018-07-03T05:39:50.418Z,20.61
2018-07-03T05:42:18.841Z,20.62
2018-07-03T05:44:47.148Z,20.63
2018-07-03T05:47:15.476Z,20.64
2018-07-03T05:49:46.902Z,20.69
2018-07-03T05:52:15.208Z,20.73
2018-07-03T05:54:43.527Z,20.78
2018-07-03T05:57:11.878Z,20.81
2018-07-03T05:59:40.186Z,20.83
2018-07-03T06:02:08.767Z,20.84
2018-07-03T06:04:37.123Z,20.85
2018-07-03T06:07:05.668Z,20.87
2018-07-03T06:09:34.017Z,20.90
2018-07-03T06:12:02.345Z,20.96
2018-07-03T06:14:30.687Z,21.01
2018-07-03T06:16:59.163Z,21.08
2018-07-03T06:19:27.688Z,21.16
2018-07-03T06:21:56.741Z,21.21
2018-07-03T06:24:25.664Z,21.27
2018-07-03T06:26:54.052Z,21.32
2018-07-03T06:29:22.463Z,21.37
2018-07-03T06:31:50.821Z,21.40
2018-07-03T06:34:19.171Z,21.44
2018-07-03T06:36:47.579Z,21.49
2018-07-03T06:39:15.822Z,21.54
2018-07-03T06:41:44.163Z,21.58
2018-07-03T06:44:12.739Z,21.65
2018-07-03T06:46:41.043Z,21.69
2018-07-03T06:49:09.507Z,21.75
2018-07-03T06:51:37.872Z,21.80
2018-07-03T06:54:06.203Z,21.85
2018-07-03T06:56:34.572Z,21.89
2018-07-03T06:59:02.975Z,21.92
2018-07-03T07:01:31.292Z,21.96
2018-07-03T07:03:59.580Z,22.00
2018-07-03T07:06:27.902Z,22.03
2018-07-03T07:08:56.314Z,22.10
2018-07-03T07:11:24.643Z,22.14
2018-07-03T07:13:52.963Z,22.19
2018-07-03T07:16:21.288Z,22.21
2018-07-03T07:18:49.588Z,22.24
2018-07-03T07:21:19.549Z,22.26
2018-07-03T07:23:47.915Z,22.27
2018-07-03T07:26:16.365Z,22.30
2018-07-03T07:28:44.741Z,22.36
2018-07-03T07:31:13.168Z,22.41
2018-07-03T07:33:41.524Z,22.43
2018-07-03T07:36:09.815Z,22.46
2018-07-03T07:38:38.173Z,22.49
2018-07-03T07:41:06.687Z,22.51
2018-07-03T07:43:35.004Z,22.57
2018-07-03T07:46:03.330Z,22.59
2018-07-03T07:48:31.639Z,22.61
2018-07-03T07:51:00.828Z,22.66
2018-07-03T07:53:29.168Z,22.71
2018-07-03T07:55:57.679Z,22.74
2018-07-03T07:58:26.120Z,22.77
2018-07-03T08:00:54.451Z,22.80
2018-07-03T08:03:22.799Z,22.82
2018-07-03T08:05:51.162Z,22.85
2018-07-03T08:08:19.555Z,22.85
2018-07-03T08:10:47.927Z,22.88
2018-07-03T08:13:16.331Z,22.91
2018-07-03T08:15:44.639Z,22.93
2018-07-03T08:18:12.985Z,22.96
2018-07-03T08:20:41.323Z,22.99
2018-07-03T08:23:09.700Z,23.03
2018-07-03T08:25:38.086Z,23.08
2018-07-03T08:28:06.535Z,23.13
2018-07-03T08:30:35.007Z,23.17
2018-07-03T08:33:03.385Z,23.21
2018-07-03T08:35:32.186Z,23.24
2018-07-03T08:38:00.503Z,23.26
2018-07-03T08:40:28.923Z,23.29
2018-07-03T08:42:57.527Z,23.29
2018-07-03T08:45:25.876Z,23.31
2018-07-03T08:47:54.251Z,23.31
2018-07-03T08:50:22.562Z,23.36
2018-07-03T08:52:50.981Z,23.41
2018-07-03T08:55:19.331Z,23.43
2018-07-03T08:57:47.649Z,23.45
2018-07-03T09:00:16.006Z,23.49
2018-07-03T09:02:44.387Z,23.52
2018-07-03T09:05:12.779Z,23.55
2018-07-03T09:07:41.110Z,23.60
2018-07-03T09:10:09.478Z,23.62
2018-07-03T09:12:37.835Z,23.64
2018-07-03T09:15:06.754Z,23.69
2018-07-03T09:17:36.931Z,23.71
2018-07-03T09:20:07.935Z,23.73
2018-07-03T09:22:38.408Z,23.71
2018-07-03T09:25:07.404Z,23.78
2018-07-03T09:27:35.747Z,23.82
2018-07-03T09:30:04.945Z,23.87
2018-07-03T09:32:33.532Z,23.88
2018-07-03T09:35:01.867Z,23.71
2018-07-03T09:37:30.223Z,23.93
2018-07-03T09:39:58.567Z,23.97
2018-07-03T09:42:26.936Z,24.03
2018-07-03T09:44:55.241Z,24.09
2018-07-03T09:47:23.675Z,24.06
2018-07-03T09:49:51.987Z,24.09
2018-07-03T09:52:20.800Z,24.12
2018-07-03T09:54:49.180Z,24.16
2018-07-03T09:57:17.654Z,24.17
2018-07-03T09:59:46.055Z,24.23
2018-07-03T10:02:15.084Z,24.29
2018-07-03T10:04:43.429Z,24.33
2018-07-03T10:07:11.894Z,24.39
2018-07-03T10:09:40.467Z,24.46
2018-07-03T10:12:08.957Z,24.53
2018-07-03T10:14:37.313Z,24.60
2018-07-03T10:17:05.687Z,24.63
2018-07-03T10:19:33.977Z,24.68
2018-07-03T10:22:02.295Z,24.70
2018-07-03T10:24:30.684Z,24.76
2018-07-03T10:26:58.995Z,24.80
2018-07-03T10:29:27.350Z,24.78
2018-07-03T10:31:55.680Z,24.78
2018-07-03T10:34:24.348Z,24.82
2018-07-03T10:36:52.655Z,24.89
2018-07-03T10:39:21.054Z,25.00
2018-07-03T10:41:49.511Z,25.08
2018-07-03T10:44:17.835Z,25.12
2018-07-03T10:46:46.160Z,25.17
2018-07-03T10:49:14.539Z,25.29
2018-07-03T10:51:42.929Z,25.48
2018-07-03T10:54:11.352Z,25.83
2018-07-03T10:56:39.695Z,26.28
2018-07-03T10:59:08.037Z,26.63
2018-07-03T11:01:36.398Z,27.02
2018-07-03T11:04:04.891Z,27.33
2018-07-03T11:06:33.363Z,27.61
2018-07-03T11:09:01.919Z,27.83
2018-07-03T11:11:30.320Z,28.10
2018-07-03T11:13:59.533Z,28.33
2018-07-03T11:16:27.855Z,28.48
2018-07-03T11:18:56.157Z,28.67
2018-07-03T11:21:24.520Z,28.88
2018-07-03T11:23:53.151Z,29.06
2018-07-03T11:26:21.522Z,29.25
2018-07-03T11:28:50.024Z,29.41
2018-07-03T11:31:18.297Z,29.54
2018-07-03T11:33:46.784Z,29.69
2018-07-03T11:36:15.076Z,29.84
2018-07-03T11:38:43.439Z,30.00
2018-07-03T11:41:12.232Z,30.19
2018-07-03T11:43:40.540Z,30.35
2018-07-03T11:46:09.188Z,30.52
2018-07-03T11:48:37.508Z,30.61
2018-07-03T11:51:06.415Z,30.66
2018-07-03T11:53:34.994Z,30.64
2018-07-03T11:56:03.379Z,30.68
2018-07-03T11:58:31.708Z,30.83
2018-07-03T12:01:00.049Z,30.95
2018-07-03T12:03:28.379Z,30.98
2018-07-03T12:05:56.718Z,31.08
2018-07-03T12:08:25.126Z,31.19
2018-07-03T12:10:53.475Z,31.25
2018-07-03T12:13:21.960Z,31.33
2018-07-03T12:15:50.315Z,31.42
2018-07-03T12:18:23.882Z,31.41
2018-07-03T12:20:52.288Z,31.36
2018-07-03T12:23:21.203Z,31.64
2018-07-03T12:25:49.575Z,31.79
2018-07-03T12:28:17.895Z,31.91
2018-07-03T12:30:46.244Z,32.04
2018-07-03T12:33:14.562Z,32.16
2018-07-03T12:35:42.911Z,32.29
2018-07-03T12:38:11.252Z,32.26
2018-07-03T12:40:39.613Z,32.20
2018-07-03T12:43:08.615Z,32.21
2018-07-03T12:45:37.028Z,32.21
2018-07-03T12:48:05.440Z,32.19
2018-07-03T12:50:33.780Z,32.27
2018-07-03T12:53:02.163Z,32.40
2018-07-03T12:55:30.647Z,32.63
2018-07-03T12:57:58.958Z,32.83
2018-07-03T13:00:27.420Z,32.92
2018-07-03T13:02:56.385Z,33.05
2018-07-03T13:05:25.076Z,33.15
2018-07-03T13:07:53.962Z,33.13
2018-07-03T13:10:22.316Z,33.15
2018-07-03T13:12:50.832Z,33.23
2018-07-03T13:15:19.168Z,33.28
2018-07-03T13:17:47.483Z,33.18
2018-07-03T13:20:15.917Z,33.20
2018-07-03T13:22:44.308Z,33.32
2018-07-03T13:25:13.152Z,33.44
2018-07-03T13:27:41.652Z,33.45
2018-07-03T13:30:10.601Z,33.42
2018-07-03T13:32:38.913Z,33.34
2018-07-03T13:35:08.575Z,33.32
2018-07-03T13:37:36.978Z,33.33
2018-07-03T13:40:06.087Z,33.23
2018-07-03T13:42:34.495Z,33.23
2018-07-03T13:45:02.812Z,33.27
2018-07-03T13:47:31.127Z,33.28
2018-07-03T13:49:59.448Z,33.35
2018-07-03T13:52:27.771Z,33.48
2018-07-03T13:54:56.103Z,33.63
2018-07-03T13:57:24.467Z,33.69
2018-07-03T13:59:52.791Z,33.69
2018-07-03T14:02:21.134Z,33.75
2018-07-03T14:04:49.459Z,33.81
2018-07-03T14:07:17.840Z,33.85
2018-07-03T14:09:46.255Z,33.82
2018-07-03T14:12:14.597Z,33.73
2018-07-03T14:14:43.244Z,33.69
2018-07-03T14:17:11.575Z,33.70
2018-07-03T14:19:40.046Z,33.69
2018-07-03T14:22:08.558Z,33.65
2018-07-03T14:24:36.878Z,33.58
2018-07-03T14:27:05.244Z,33.58
2018-07-03T14:29:33.535Z,33.64
2018-07-03T14:32:01.906Z,33.69
2018-07-03T14:34:30.236Z,33.75
2018-07-03T14:36:58.660Z,33.74
2018-07-03T14:39:27.619Z,33.71
2018-07-03T14:41:55.967Z,33.67
2018-07-03T14:44:24.334Z,33.62
2018-07-03T14:46:52.660Z,33.58
2018-07-03T14:49:20.940Z,33.52
2018-07-03T14:51:49.271Z,33.39
2018-07-03T14:54:17.799Z,33.28
2018-07-03T14:56:46.127Z,33.18
2018-07-03T14:59:14.531Z,33.14
2018-07-03T15:01:42.928Z,33.07
2018-07-03T15:04:11.266Z,33.01
2018-07-03T15:06:39.616Z,32.94
2018-07-03T15:09:09.853Z,32.89
2018-07-03T15:11:38.163Z,32.84
2018-07-03T15:14:06.584Z,32.83
2018-07-03T15:16:34.977Z,32.78
2018-07-03T15:19:08.720Z,32.71
2018-07-03T15:21:37.059Z,32.64
2018-07-03T15:24:07.023Z,32.61
2018-07-03T15:26:35.690Z,32.59
2018-07-03T15:29:04.316Z,32.56
2018-07-03T15:31:32.703Z,32.51
2018-07-03T15:34:01.107Z,32.46
2018-07-03T15:36:29.564Z,32.46
2018-07-03T15:38:57.910Z,32.51
2018-07-03T15:41:26.735Z,32.53
2018-07-03T15:44:06.195Z,32.55
2018-07-03T15:46:34.673Z,32.57
2018-07-03T15:49:03.034Z,32.60
2018-07-03T15:51:31.387Z,32.68
2018-07-03T15:53:59.769Z,32.72
2018-07-03T15:56:28.086Z,32.75
2018-07-03T15:58:59.055Z,32.74
2018-07-03T16:01:27.503Z,32.83
2018-07-03T16:04:07.087Z,32.99
2018-07-03T16:06:56.171Z,33.49
2018-07-03T16:09:24.754Z,34.26
2018-07-03T16:11:53.047Z,35.01
2018-07-03T16:14:21.521Z,35.68
2018-07-03T16:16:50.008Z,36.21
2018-07-03T16:19:23.731Z,36.61
2018-07-03T16:21:52.139Z,37.01
2018-07-03T16:24:20.524Z,37.30
2018-07-03T16:26:48.955Z,37.56
2018-07-03T16:29:17.349Z,37.76
2018-07-03T16:31:45.695Z,37.95
2018-07-03T16:34:14.048Z,38.11
2018-07-03T16:36:42.399Z,38.19
2018-07-03T16:39:12.356Z,38.33
2018-07-03T16:41:41.163Z,38.46
2018-07-03T16:44:10.367Z,38.55
2018-07-03T16:46:38.787Z,38.58
2018-07-03T16:49:07.188Z,38.65
2018-07-03T16:51:36.157Z,38.63
2018-07-03T16:54:04.641Z,38.64
2018-07-03T16:56:33.023Z,38.65
2018-07-03T16:59:01.460Z,38.60
2018-07-03T17:01:29.887Z,38.54
2018-07-03T17:03:58.247Z,38.45
2018-07-03T17:06:26.568Z,38.41
2018-07-03T17:08:54.915Z,38.19
2018-07-03T17:11:23.391Z,37.86
2018-07-03T17:13:51.834Z,37.48
2018-07-03T17:16:20.103Z,37.01
2018-07-03T17:18:53.823Z,36.78
2018-07-03T17:21:22.183Z,36.50
2018-07-03T17:23:50.615Z,36.26
2018-07-03T17:26:18.966Z,35.94
2018-07-03T17:28:47.280Z,35.58
2018-07-03T17:31:15.725Z,35.23
2018-07-03T17:33:44.061Z,34.98
2018-07-03T17:36:13.191Z,34.70
2018-07-03T17:38:42.066Z,34.44
2018-07-03T17:41:21.502Z,34.20
2018-07-03T17:44:03.860Z,33.99
2018-07-03T17:46:32.416Z,33.74
2018-07-03T17:49:00.776Z,33.60
2018-07-03T17:51:32.107Z,33.42
2018-07-03T17:54:01.073Z,33.16
2018-07-03T17:56:29.448Z,32.77
2018-07-03T17:58:57.842Z,32.40
2018-07-03T18:01:26.199Z,32.05
2018-07-03T18:03:54.566Z,31.77
2018-07-03T18:06:22.984Z,31.46
2018-07-03T18:08:51.679Z,31.22
2018-07-03T18:11:20.426Z,31.01
2018-07-03T18:13:48.764Z,30.86
2018-07-03T18:16:17.595Z,30.77
2018-07-03T18:18:46.033Z,30.70
2018-07-03T18:21:14.349Z,30.61
2018-07-03T18:23:42.751Z,30.49
2018-07-03T18:26:11.170Z,30.40
2018-07-03T18:28:39.483Z,30.28
2018-07-03T18:31:07.843Z,30.20
2018-07-03T18:33:36.195Z,30.11
2018-07-03T18:36:05.376Z,30.01
2018-07-03T18:38:33.723Z,29.95
2018-07-03T18:41:02.238Z,29.85
2018-07-03T18:43:31.132Z,29.79
2018-07-03T18:45:59.877Z,29.70
2018-07-03T18:48:28.704Z,29.61
2018-07-03T18:50:57.353Z,29.48
2018-07-03T18:53:27.344Z,29.36
2018-07-03T18:55:56.062Z,29.26
2018-07-03T18:58:24.910Z,29.14
2018-07-03T19:00:53.802Z,29.04
2018-07-03T19:03:22.272Z,28.96
2018-07-03T19:05:51.273Z,28.86
2018-07-03T19:08:20.261Z,28.77
2018-07-03T19:10:49.250Z,28.68
2018-07-03T19:13:18.200Z,28.60
2018-07-03T19:15:46.684Z,28.50
2018-07-03T19:18:15.386Z,28.41
2018-07-03T19:20:44.095Z,28.32
2018-07-03T19:23:12.577Z,28.24
2018-07-03T19:25:41.119Z,28.15
2018-07-03T19:28:09.780Z,28.05
2018-07-03T19:30:38.131Z,27.98
2018-07-03T19:33:06.549Z,27.88
2018-07-03T19:35:34.889Z,27.79
2018-07-03T19:38:03.374Z,27.70
2018-07-03T19:40:31.667Z,27.60
2018-07-03T19:43:36.129Z,27.53
2018-07-03T19:46:04.879Z,27.40
2018-07-03T19:48:33.225Z,27.33
2018-07-03T19:51:01.570Z,27.23
2018-07-03T19:53:29.891Z,27.14
2018-07-03T19:55:59.225Z,27.06
2018-07-03T19:58:27.617Z,26.99
2018-07-03T20:00:56.776Z,26.90
2018-07-03T20:03:25.150Z,26.85
2018-07-03T20:05:53.532Z,26.79
2018-07-03T20:08:21.933Z,26.72
2018-07-03T20:10:50.274Z,26.66
2018-07-03T20:13:19.201Z,26.59
2018-07-03T20:15:47.519Z,26.55
2018-07-03T20:18:16.625Z,26.51
2018-07-03T20:20:45.324Z,26.48
2018-07-03T20:23:13.659Z,26.44
2018-07-03T20:25:42.103Z,26.44
2018-07-03T20:28:10.440Z,26.41
2018-07-03T20:30:38.743Z,26.36
2018-07-03T20:33:07.078Z,26.31
2018-07-03T20:35:35.471Z,26.25
2018-07-03T20:38:04.960Z,26.16
2018-07-03T20:41:07.785Z,26.12
2018-07-03T20:43:37.487Z,26.06
2018-07-03T20:46:06.664Z,26.03
2018-07-03T20:48:35.075Z,25.95
2018-07-03T20:51:03.848Z,25.91
2018-07-03T20:53:33.841Z,25.86
2018-07-03T20:56:02.378Z,25.79
2018-07-03T20:58:30.907Z,25.88
2018-07-03T21:00:59.345Z,25.84
2018-07-03T21:03:27.851Z,25.77
2018-07-03T21:05:56.285Z,25.77
2018-07-03T21:08:24.603Z,25.73
2018-07-03T21:10:52.973Z,25.72
2018-07-03T21:13:21.373Z,25.72
2018-07-03T21:15:49.744Z,25.66
2018-07-03T21:18:18.134Z,25.66
2018-07-03T21:20:46.456Z,25.59
2018-07-03T21:23:15.101Z,25.55
2018-07-03T21:25:43.464Z,25.49
2018-07-03T21:28:11.785Z,25.45
2018-07-03T21:30:40.129Z,25.40
2018-07-03T21:33:08.471Z,25.32
2018-07-03T21:35:36.815Z,25.23
2018-07-03T21:38:05.175Z,25.20
2018-07-03T21:40:33.498Z,25.24
2018-07-03T21:43:01.848Z,25.29
2018-07-03T21:45:30.155Z,25.30
2018-07-03T21:47:58.535Z,25.30
2018-07-03T21:50:26.892Z,25.33
2018-07-03T21:52:55.220Z,25.32
2018-07-03T21:55:23.675Z,25.26
2018-07-03T21:57:52.002Z,25.21
2018-07-03T22:00:30.796Z,25.19
2018-07-03T22:02:59.157Z,25.14
2018-07-03T22:05:27.508Z,25.13
2018-07-03T22:07:55.893Z,25.13
2018-07-03T22:10:24.216Z,25.11
2018-07-03T22:12:52.584Z,25.12
2018-07-03T22:15:20.900Z,25.13
2018-07-03T22:17:49.227Z,25.14
2018-07-03T22:20:17.563Z,25.14
2018-07-03T22:22:46.048Z,25.15
2018-07-03T22:25:14.646Z,25.11
2018-07-03T22:27:42.997Z,25.06
2018-07-03T22:30:11.306Z,24.98
2018-07-03T22:32:39.631Z,24.88
2018-07-03T22:35:07.998Z,24.89
2018-07-03T22:37:36.523Z,24.88
2018-07-03T22:40:04.927Z,24.84
2018-07-03T22:42:33.263Z,24.86
2018-07-03T22:45:01.575Z,24.83
2018-07-03T22:47:29.910Z,24.81
2018-07-03T22:49:58.256Z,24.75
2018-07-03T22:52:26.623Z,24.78
2018-07-03T22:54:54.951Z,24.78
2018-07-03T22:57:23.315Z,24.80
2018-07-03T22:59:51.629Z,24.78
2018-07-03T23:02:19.971Z,24.75
2018-07-03T23:04:48.347Z,24.73
2018-07-03T23:07:16.705Z,24.77
2018-07-03T23:09:45.070Z,24.79
2018-07-03T23:12:20.040Z,24.79
2018-07-03T23:14:50.827Z,24.77
2018-07-03T23:17:19.165Z,24.74
2018-07-03T23:19:48.189Z,24.71
2018-07-03T23:22:16.495Z,24.67
2018-07-03T23:24:45.253Z,24.69
2018-07-03T23:27:14.547Z,24.70
2018-07-03T23:29:42.911Z,24.58
2018-07-03T23:32:11.735Z,24.63
2018-07-03T23:34:40.422Z,24.61
2018-07-03T23:37:08.997Z,24.60
2018-07-03T23:39:37.604Z,24.58
2018-07-03T23:42:05.931Z,24.55
2018-07-03T23:44:34.298Z,24.52
2018-07-03T23:47:13.926Z,24.55
2018-07-03T23:49:53.334Z,24.57
2018-07-03T23:52:32.881Z,24.58
2018-07-03T23:55:12.397Z,24.59
2018-07-03T23:57:51.931Z,24.61
